Time;durP1;ratioP1;P1;durP2;ratioP2;P2;SDS_P1;SDS_P2;PMS_P1;PMS_P2;Temp;Humidity;BMP_temperature;BMP_pressure;BME280_temperature;BME280_humidity;BME280_pressure;Samples;Min_cycle;Max_cycle;Signal;HPM_P1;HPM_P2
2021/01/13 00:01:19;;;;;;;6.93;3.10;;;4.80;99.90;;;;;;6155147;23;20138;-81
2021/01/13 00:03:50;;;;;;;6.25;3.05;;;4.90;99.90;;;;;;6181666;23;20581;-81
2021/01/13 00:06:20;;;;;;;6.93;3.30;;;4.90;99.90;;;;;;6181732;23;20161;-81
2021/01/13 00:08:54;;;;;;;4.50;2.90;;;5.00;99.90;;;;;;6181116;23;20214;-81
2021/01/13 00:11:22;;;;;;;5.43;3.40;;;5.00;99.90;;;;;;6181244;23;20130;-81
2021/01/13 00:14:03;;;;;;;6.38;3.00;;;5.10;99.90;;;;;;6181782;23;20252;-81
2021/01/13 00:16:29;;;;;;;5.65;3.40;;;5.10;99.90;;;;;;6182948;23;20146;-81
2021/01/13 00:19:02;;;;;;;7.20;3.07;;;5.20;99.90;;;;;;6158268;23;20152;-81
2021/01/13 00:21:46;;;;;;;8.48;3.47;;;5.20;99.90;;;;;;6181365;23;21060;-81
2021/01/13 00:24:14;;;;;;;5.38;3.10;;;5.20;99.90;;;;;;6181454;23;20181;-81
2021/01/13 00:27:13;;;;;;;9.98;3.17;;;5.30;99.90;;;;;;6181610;23;20460;-81
2021/01/13 00:30:16;;;;;;;7.43;2.45;;;5.30;99.90;;;;;;6155235;23;20460;-81
2021/01/13 00:32:53;;;;;;;10.50;3.20;;;5.30;99.90;;;;;;6157149;23;20165;-81
2021/01/13 00:35:45;;;;;;;6.03;3.35;;;5.30;99.90;;;;;;6181444;23;20588;-81
2021/01/13 00:38:20;;;;;;;12.55;3.40;;;5.30;99.90;;;;;;6181163;23;20520;-80
2021/01/13 00:41:14;;;;;;;6.18;3.45;;;5.40;99.90;;;;;;6157253;23;20518;-81
2021/01/13 00:47:02;;;;;;;5.70;2.40;;;5.40;99.90;;;;;;6181518;23;20499;-81
2021/01/13 00:49:33;;;;;;;6.25;2.60;;;5.40;99.90;;;;;;6181222;23;20150;-82
2021/01/13 00:51:59;;;;;;;4.75;2.65;;;5.40;99.90;;;;;;6181666;23;20548;-81
2021/01/13 00:54:43;;;;;;;6.00;3.07;;;5.40;99.90;;;;;;6185805;23;20162;-81
2021/01/13 00:57:17;;;;;;;7.60;3.08;;;5.40;99.90;;;;;;6180966;23;20488;-82
2021/01/13 00:59:46;;;;;;;6.10;3.13;;;5.40;99.90;;;;;;6154984;23;20153;-81
2021/01/13 01:02:14;;;;;;;4.90;2.85;;;5.40;99.90;;;;;;6155524;23;20169;-81
2021/01/13 01:05:16;;;;;;;7.88;3.63;;;5.40;99.90;;;;;;6181296;23;20162;-81
2021/01/13 01:07:50;;;;;;;6.00;3.15;;;5.40;99.90;;;;;;6063285;23;20159;-81
2021/01/13 01:10:33;;;;;;;4.95;3.03;;;5.40;99.90;;;;;;6181162;23;20468;-81
2021/01/13 01:13:47;;;;;;;5.25;2.42;;;5.40;99.90;;;;;;6181277;23;20181;-81
2021/01/13 01:16:29;;;;;;;8.13;3.80;;;5.30;99.90;;;;;;6182036;23;20196;-81
2021/01/13 01:18:55;;;;;;;7.70;2.80;;;5.20;99.90;;;;;;6182986;23;20501;-81
2021/01/13 01:21:23;;;;;;;5.25;3.00;;;5.20;99.90;;;;;;6183134;23;20616;-81
2021/01/13 01:23:52;;;;;;;11.70;3.30;;;5.10;99.90;;;;;;6182996;23;20201;-81
2021/01/13 01:26:32;;;;;;;7.60;3.00;;;5.10;99.90;;;;;;6181779;23;20145;-81
2021/01/13 01:29:54;;;;;;;8.52;3.85;;;5.00;99.90;;;;;;6134702;23;20176;-81
2021/01/13 01:32:55;;;;;;;4.55;3.03;;;4.90;99.90;;;;;;6187805;23;20220;-81
2021/01/13 01:36:01;;;;;;;7.07;3.38;;;4.90;99.90;;;;;;6183536;23;20137;-81
2021/01/13 01:42:24;;;;;;;7.07;2.78;;;4.90;99.90;;;;;;6129895;23;20185;-81
2021/01/13 01:45:18;;;;;;;6.00;3.53;;;4.90;99.90;;;;;;6161381;23;20134;-81
2021/01/13 01:48:02;;;;;;;4.88;2.80;;;4.90;99.90;;;;;;6183289;23;20138;-80
2021/01/13 01:50:44;;;;;;;5.22;3.10;;;4.90;99.90;;;;;;6156857;23;20122;-80
2021/01/13 01:53:36;;;;;;;9.80;2.83;;;4.90;99.90;;;;;;6156838;23;20181;-81
2021/01/13 01:56:18;;;;;;;5.57;2.75;;;4.90;99.90;;;;;;6183181;23;20145;-81
2021/01/13 01:58:49;;;;;;;5.05;3.30;;;4.90;99.90;;;;;;6183539;23;20145;-80
2021/01/13 02:01:36;;;;;;;6.05;2.95;;;4.90;99.90;;;;;;6158426;23;20509;-80
2021/01/13 02:04:42;;;;;;;6.97;3.90;;;4.90;99.90;;;;;;6180791;23;20262;-80
2021/01/13 02:07:43;;;;;;;10.32;3.00;;;5.00;99.90;;;;;;6157023;23;20210;-80
2021/01/13 02:10:18;;;;;;;7.03;3.55;;;5.00;99.90;;;;;;6184443;23;20142;-80
2021/01/13 02:13:08;;;;;;;6.65;3.97;;;5.00;99.90;;;;;;6183253;23;20156;-80
2021/01/13 02:16:00;;;;;;;4.00;3.15;;;5.00;99.90;;;;;;6185311;23;20137;-80
2021/01/13 02:19:29;;;;;;;7.47;3.38;;;4.90;99.90;;;;;;6160052;23;20228;-80
2021/01/13 02:22:07;;;;;;;8.48;3.58;;;5.00;99.90;;;;;;6129388;23;20189;-80
2021/01/13 02:25:11;;;;;;;8.57;4.40;;;5.00;99.90;;;;;;6156384;23;20162;-80
2021/01/13 02:28:10;;;;;;;6.30;3.03;;;5.00;99.90;;;;;;6179778;23;20212;-80
2021/01/13 02:31:15;;;;;;;5.50;3.75;;;5.10;99.90;;;;;;6157416;23;20126;-80
2021/01/13 02:34:38;;;;;;;6.43;3.25;;;5.10;99.90;;;;;;6182901;23;20165;-80
2021/01/13 02:37:41;;;;;;;7.53;2.92;;;5.20;99.90;;;;;;6182595;23;20150;-80
2021/01/13 02:40:31;;;;;;;4.65;3.38;;;5.20;99.90;;;;;;6182624;23;20130;-80
2021/01/13 02:43:13;;;;;;;6.35;3.63;;;5.20;99.90;;;;;;6181341;23;20185;-80
2021/01/13 02:45:47;;;;;;;6.57;4.07;;;5.10;99.90;;;;;;6188232;23;20149;-80
2021/01/13 02:48:53;;;;;;;4.78;4.10;;;5.00;99.90;;;;;;6182205;23;20149;-80
2021/01/13 02:51:29;;;;;;;6.47;3.45;;;5.00;99.90;;;;;;6156786;23;20126;-81
2021/01/13 02:54:17;;;;;;;10.68;4.03;;;4.90;99.90;;;;;;6155446;23;20189;-80
2021/01/13 02:56:51;;;;;;;7.63;4.10;;;4.90;99.90;;;;;;6182169;23;20526;-81
2021/01/13 02:59:44;;;;;;;7.25;3.80;;;4.80;99.90;;;;;;6181788;23;20126;-81
2021/01/13 03:02:19;;;;;;;8.13;3.97;;;4.80;99.90;;;;;;6182124;23;20165;-81
2021/01/13 03:04:46;;;;;;;8.32;3.92;;;4.70;99.90;;;;;;6181956;23;20288;-81
2021/01/13 03:07:26;;;;;;;7.78;3.65;;;4.70;99.90;;;;;;6155273;23;20731;-82
2021/01/13 03:10:17;;;;;;;7.45;4.15;;;4.60;99.90;;;;;;6155612;23;20487;-82
2021/01/13 03:12:46;;;;;;;5.22;4.07;;;4.60;99.90;;;;;;6182273;23;20614;-81
2021/01/13 03:15:14;;;;;;;6.50;4.30;;;4.60;99.90;;;;;;6155830;23;20161;-82
2021/01/13 03:18:27;;;;;;;6.93;3.88;;;4.60;99.90;;;;;;6181765;23;20175;-82
2021/01/13 03:22:09;;;;;;;7.07;4.15;;;4.60;99.90;;;;;;6182140;23;20135;-82
2021/01/13 03:24:52;;;;;;;6.18;3.65;;;4.60;99.90;;;;;;6165380;23;20169;-82
2021/01/13 03:27:45;;;;;;;7.10;3.88;;;4.60;99.90;;;;;;6181935;23;20563;-81
2021/01/13 03:30:22;;;;;;;5.45;4.47;;;4.60;99.90;;;;;;6182574;23;20142;-82
2021/01/13 03:33:34;;;;;;;6.38;4.40;;;4.70;99.90;;;;;;6181972;23;20168;-82
2021/01/13 03:36:31;;;;;;;7.25;3.70;;;4.60;99.90;;;;;;6184135;23;20142;-82
2021/01/13 03:39:16;;;;;;;7.43;3.80;;;4.70;99.90;;;;;;6185071;23;20149;-81
2021/01/13 03:41:55;;;;;;;6.82;4.38;;;4.60;99.90;;;;;;6186531;23;20169;-80
2021/01/13 03:45:14;;;;;;;;;;;;;;;;;;;;;
2021/01/13 03:48:07;;;;;;;12.55;4.50;;;4.60;99.90;;;;;;6130607;23;20169;-81
2021/01/13 03:50:55;;;;;;;7.20;4.65;;;4.60;99.90;;;;;;6197627;23;20130;-80
2021/01/13 03:53:32;;;;;;;5.65;4.00;;;4.50;99.90;;;;;;6156174;23;20551;-81
2021/01/13 03:56:06;;;;;;;7.13;4.38;;;4.50;99.90;;;;;;6182437;23;20693;-81
2021/01/13 03:58:50;;;;;;;5.32;4.80;;;4.50;99.90;;;;;;6181599;23;20208;-80
2021/01/13 04:01:45;;;;;;;7.90;4.85;;;4.50;99.90;;;;;;6185623;23;20161;-81
2021/01/13 04:04:40;;;;;;;6.68;4.47;;;4.50;99.90;;;;;;6181955;23;20166;-80
2021/01/13 04:07:09;;;;;;;11.02;4.55;;;4.50;99.90;;;;;;6131277;23;20165;-80
2021/01/13 04:09:40;;;;;;;8.50;4.80;;;4.50;99.90;;;;;;6181228;23;20145;-81
2021/01/13 04:12:21;;;;;;;8.43;4.35;;;4.50;99.90;;;;;;6181617;23;20496;-80
2021/01/13 04:15:21;;;;;;;;;;;;;;;;;;;;;
2021/01/13 04:17:51;;;;;;;6.20;4.68;;;4.50;99.90;;;;;;6153758;23;20189;-81
2021/01/13 04:20:28;;;;;;;10.38;5.18;;;4.60;99.90;;;;;;6155763;23;20149;-81
2021/01/13 04:23:02;;;;;;;9.10;5.60;;;4.50;99.90;;;;;;6181911;23;20203;-81
2021/01/13 04:25:32;;;;;;;6.90;5.18;;;4.50;99.90;;;;;;6181772;23;20130;-80
2021/01/13 04:28:08;;;;;;;10.75;5.63;;;4.50;99.90;;;;;;6180970;23;20145;-80
2021/01/13 04:30:46;;;;;;;7.53;3.88;;;4.50;99.90;;;;;;6157160;23;20180;-80
2021/01/13 04:33:12;;;;;;;7.45;5.40;;;4.50;99.90;;;;;;6181426;23;20170;-81
2021/01/13 04:35:40;;;;;;;10.55;6.72;;;4.50;99.90;;;;;;6155544;23;20643;-81
2021/01/13 04:38:32;;;;;;;10.50;5.95;;;4.50;99.90;;;;;;6185313;23;20729;-81
2021/01/13 04:41:12;;;;;;;8.60;6.63;;;4.50;99.90;;;;;;6168768;23;20158;-81
2021/01/13 04:44:00;;;;;;;8.90;5.40;;;4.50;99.90;;;;;;6180728;23;20247;-81
2021/01/13 04:46:53;;;;;;;8.27;5.18;;;4.50;99.90;;;;;;6182581;23;20131;-80
2021/01/13 04:49:25;;;;;;;7.15;5.13;;;4.50;99.90;;;;;;6180725;23;20165;-80
2021/01/13 04:52:43;;;;;;;8.18;5.13;;;4.50;99.90;;;;;;6183111;23;20153;-80
2021/01/13 04:55:27;;;;;;;9.45;5.97;;;4.50;99.90;;;;;;6138668;23;20160;-80
2021/01/13 04:58:20;;;;;;;10.10;6.47;;;4.50;99.90;;;;;;6181340;23;20534;-80
2021/01/13 05:01:09;;;;;;;7.18;5.72;;;4.50;99.90;;;;;;6183236;23;20150;-80
2021/01/13 05:03:59;;;;;;;12.68;6.50;;;4.50;99.90;;;;;;6157381;23;20177;-80
2021/01/13 05:06:40;;;;;;;9.27;6.00;;;4.50;99.90;;;;;;6183624;23;20461;-80
2021/01/13 05:09:13;;;;;;;10.40;6.40;;;4.50;99.90;;;;;;6156365;23;20173;-80
2021/01/13 05:11:55;;;;;;;9.07;6.63;;;4.60;99.90;;;;;;6182960;23;20146;-80
2021/01/13 05:14:38;;;;;;;10.43;7.13;;;4.60;99.90;;;;;;6157016;23;20177;-80
2021/01/13 05:17:58;;;;;;;9.00;7.20;;;4.70;99.90;;;;;;6184152;23;20631;-80
2021/01/13 05:20:42;;;;;;;11.02;6.20;;;4.70;99.90;;;;;;6141161;23;20595;-82
2021/01/13 05:23:14;;;;;;;12.05;7.22;;;4.90;99.90;;;;;;6157453;23;20173;-80
2021/01/13 05:25:43;;;;;;;10.00;6.50;;;4.90;99.90;;;;;;6183427;23;20157;-82
2021/01/13 05:28:14;;;;;;;13.35;7.03;;;5.00;99.90;;;;;;6183244;23;20497;-80
2021/01/13 05:30:42;;;;;;;11.98;7.65;;;5.00;99.90;;;;;;6182692;23;20153;-81
2021/01/13 05:33:19;;;;;;;12.07;8.40;;;5.10;99.90;;;;;;6183185;23;20193;-80
2021/01/13 05:36:05;;;;;;;14.30;7.93;;;5.20;99.90;;;;;;6182859;23;20245;-80
2021/01/13 05:39:10;;;;;;;11.10;7.55;;;5.20;99.90;;;;;;6156009;23;20152;-80
2021/01/13 05:41:46;;;;;;;10.60;6.03;;;5.30;99.90;;;;;;6154223;23;22413;-81
2021/01/13 05:44:41;;;;;;;9.68;6.55;;;5.30;99.90;;;;;;6140150;23;20542;-81
2021/01/13 05:47:48;;;;;;;11.40;6.65;;;5.40;99.90;;;;;;6182553;23;20161;-81
2021/01/13 05:50:25;;;;;;;11.02;6.07;;;5.40;99.90;;;;;;6183130;23;20646;-81
2021/01/13 05:52:55;;;;;;;11.65;8.20;;;5.50;99.90;;;;;;6186377;23;20172;-81
2021/01/13 05:56:13;;;;;;;14.23;7.97;;;5.50;99.90;;;;;;6183556;23;20144;-81
2021/01/13 05:59:18;;;;;;;9.88;7.15;;;5.50;99.90;;;;;;6183263;23;20126;-81
2021/01/13 06:02:10;;;;;;;10.90;7.15;;;5.60;99.90;;;;;;6134542;23;20181;-80
2021/01/13 06:04:51;;;;;;;9.40;6.38;;;5.60;99.90;;;;;;6109869;23;20728;-82
2021/01/13 06:07:31;;;;;;;14.88;6.32;;;5.60;99.90;;;;;;6158370;23;20131;-81
2021/01/13 06:09:58;;;;;;;8.13;6.05;;;5.60;99.90;;;;;;6184789;23;20138;-81
2021/01/13 06:12:43;;;;;;;10.98;6.25;;;5.60;99.90;;;;;;6184019;23;20156;-80
2021/01/13 06:15:22;;;;;;;11.57;7.40;;;5.60;99.90;;;;;;6158043;23;20149;-81
2021/01/13 06:17:56;;;;;;;8.48;5.68;;;5.70;99.90;;;;;;6157108;23;20137;-81
2021/01/13 06:20:30;;;;;;;9.63;6.53;;;5.70;99.90;;;;;;6183188;23;20149;-80
2021/01/13 06:23:23;;;;;;;12.65;5.72;;;5.70;99.90;;;;;;6158173;23;20674;-80
2021/01/13 06:25:53;;;;;;;7.50;5.65;;;5.70;99.90;;;;;;6183310;23;20209;-80
2021/01/13 06:28:23;;;;;;;7.93;5.72;;;5.70;99.90;;;;;;6186959;23;20142;-81
2021/01/13 06:31:21;;;;;;;7.75;5.97;;;5.70;99.90;;;;;;6156690;23;20136;-81
2021/01/13 06:34:45;;;;;;;9.43;5.40;;;5.80;99.90;;;;;;6181020;23;20500;-80
2021/01/13 06:42:25;;;;;;;;;;;;;;;;;;;;;
2021/01/13 06:46:08;;;;;;;5.55;4.10;;;5.90;99.90;;;;;;5950003;24;20158;-80
2021/01/13 06:49:00;;;;;;;6.32;4.38;;;5.90;99.90;;;;;;5960207;23;20485;-81
2021/01/13 06:51:43;;;;;;;11.10;6.25;;;5.90;99.90;;;;;;5966715;23;20155;-79
2021/01/13 06:54:45;;;;;;;8.02;4.18;;;5.90;99.90;;;;;;6032357;23;20166;-80
2021/01/13 06:57:44;;;;;;;;;;;;;;;;;;;;;
2021/01/13 07:00:24;;;;;;;10.23;4.30;;;5.90;99.90;;;;;;6031953;23;20228;-82
2021/01/13 07:03:29;;;;;;;6.25;4.65;;;5.90;99.90;;;;;;6032271;23;20185;-79
2021/01/13 07:06:00;;;;;;;9.95;3.88;;;5.90;99.90;;;;;;6035944;23;20150;-79
2021/01/13 07:08:34;;;;;;;8.63;6.05;;;5.90;99.90;;;;;;6031708;23;20212;-79
2021/01/13 07:11:05;;;;;;;9.52;6.65;;;5.80;99.90;;;;;;6032031;23;20474;-81
2021/01/13 07:13:39;;;;;;;9.18;5.25;;;5.80;99.90;;;;;;6031310;23;20173;-80
2021/01/13 07:16:30;;;;;;;8.43;6.10;;;5.70;99.90;;;;;;6054492;23;20581;-80
2021/01/13 07:19:06;;;;;;;11.32;5.13;;;5.60;99.90;;;;;;6031790;23;20141;-79
2021/01/13 07:21:37;;;;;;;9.07;6.10;;;5.60;99.90;;;;;;6032513;23;20151;-80
2021/01/13 07:24:13;;;;;;;12.43;6.00;;;5.50;99.90;;;;;;6031767;23;20169;-80
2021/01/13 07:26:40;;;;;;;11.18;5.78;;;5.50;99.90;;;;;;6032133;23;20176;-80
2021/01/13 07:29:07;;;;;;;10.57;5.85;;;5.40;99.90;;;;;;6054721;23;20155;-80
2021/01/13 07:31:34;;;;;;;10.88;6.65;;;5.30;99.90;;;;;;6030563;23;20619;-81
2021/01/13 07:34:08;;;;;;;13.90;6.22;;;5.30;99.90;;;;;;6032279;23;20172;-80
2021/01/13 07:36:38;;;;;;;10.13;6.70;;;5.30;99.90;;;;;;6032504;23;20562;-80
2021/01/13 07:39:06;;;;;;;9.00;5.78;;;5.20;99.90;;;;;;6006247;23;20720;-80
2021/01/13 07:41:35;;;;;;;13.57;6.80;;;5.20;99.90;;;;;;6031877;23;20149;-81
2021/01/13 07:44:34;;;;;;;11.70;6.63;;;5.10;99.90;;;;;;6035953;23;20173;-80
2021/01/13 07:47:01;;;;;;;7.43;5.50;;;5.10;99.90;;;;;;6054712;23;20138;-81
2021/01/13 07:49:47;;;;;;;7.70;6.00;;;5.10;99.90;;;;;;6181600;23;20158;-80
2021/01/13 07:52:16;;;;;;;7.60;5.47;;;5.10;99.90;;;;;;6181676;23;20145;-80
2021/01/13 07:54:47;;;;;;;7.50;5.82;;;5.00;99.90;;;;;;6182059;23;20177;-79
2021/01/13 07:57:22;;;;;;;8.48;6.10;;;5.00;99.90;;;;;;6179918;23;20138;-79
2021/01/13 08:00:07;;;;;;;6.70;5.65;;;5.00;99.90;;;;;;6182200;23;20153;-80
2021/01/13 08:02:43;;;;;;;9.73;6.50;;;5.00;99.90;;;;;;6182091;23;20162;-79
2021/01/13 08:05:37;;;;;;;11.88;8.00;;;5.00;99.90;;;;;;6181789;23;20521;-79
2021/01/13 08:08:10;;;;;;;10.23;6.65;;;5.00;99.90;;;;;;6154259;23;20188;-81
2021/01/13 08:10:37;;;;;;;8.52;5.72;;;5.00;99.90;;;;;;6181524;23;20168;-80
2021/01/13 08:13:22;;;;;;;12.35;7.30;;;5.10;99.90;;;;;;6131615;23;20177;-79
2021/01/13 08:16:24;;;;;;;6.82;5.55;;;5.10;99.90;;;;;;6156438;23;20212;-79
2021/01/13 08:18:50;;;;;;;5.68;4.40;;;5.10;99.90;;;;;;6190503;23;20134;-80
2021/01/13 08:24:03;;;;;;;7.18;5.35;;;5.20;99.90;;;;;;6155998;23;20741;-79
2021/01/13 08:26:29;;;;;;;11.73;7.65;;;5.30;99.90;;;;;;6184129;23;20183;-79
2021/01/13 08:28:57;;;;;;;11.32;5.30;;;5.30;99.90;;;;;;6184124;23;20149;-79
2021/01/13 08:31:26;;;;;;;11.48;6.05;;;5.40;99.90;;;;;;6183945;23;20200;-80
2021/01/13 08:34:07;;;;;;;6.63;5.22;;;5.40;99.90;;;;;;6158558;23;20165;-76
2021/01/13 08:36:39;;;;;;;9.25;5.57;;;5.50;99.90;;;;;;6156942;23;20596;-76
2021/01/13 08:39:15;;;;;;;9.00;5.35;;;5.60;99.90;;;;;;6182691;23;20134;-75
2021/01/13 08:41:43;;;;;;;8.15;4.78;;;5.60;99.90;;;;;;6157469;23;20152;-77
2021/01/13 08:44:11;;;;;;;10.50;4.80;;;5.70;99.90;;;;;;6187261;23;20189;-79
2021/01/13 08:46:41;;;;;;;5.35;4.28;;;5.70;99.90;;;;;;6184037;23;20146;-80
2021/01/13 08:49:08;;;;;;;11.48;5.15;;;5.70;99.90;;;;;;6046249;23;20162;-78
2021/01/13 08:51:34;;;;;;;9.10;4.80;;;5.80;99.90;;;;;;6031924;23;20452;-79
2021/01/13 08:54:19;;;;;;;6.90;4.93;;;5.80;99.90;;;;;;6030581;23;20694;-79
2021/01/13 08:57:03;;;;;;;7.13;4.63;;;5.90;99.90;;;;;;6032476;23;20145;-79
2021/01/13 08:59:38;;;;;;;12.13;4.85;;;5.90;99.90;;;;;;6035684;23;20169;-78
2021/01/13 09:02:11;;;;;;;7.05;5.43;;;6.00;99.90;;;;;;6032053;23;20182;-79
2021/01/13 09:04:52;;;;;;;6.78;5.00;;;6.10;99.90;;;;;;6030964;23;20196;-80
2021/01/13 09:07:30;;;;;;;6.45;5.05;;;6.10;99.90;;;;;;6034460;23;20130;-76
2021/01/13 09:10:17;;;;;;;6.57;4.03;;;6.20;99.90;;;;;;6055379;23;20184;-76
2021/01/13 09:12:55;;;;;;;7.63;4.95;;;6.20;99.90;;;;;;6032607;23;20245;-76
2021/01/13 09:15:28;;;;;;;10.75;3.95;;;6.30;99.90;;;;;;6059554;23;20521;-76
2021/01/13 09:17:58;;;;;;;6.65;3.35;;;6.30;99.90;;;;;;6034777;23;20227;-76
2021/01/13 09:20:33;;;;;;;6.80;3.70;;;6.30;99.90;;;;;;6034449;23;20198;-76
2021/01/13 09:23:05;;;;;;;11.32;4.57;;;6.40;99.90;;;;;;6041327;23;20188;-76
2021/01/13 09:25:45;;;;;;;5.68;4.10;;;6.40;99.90;;;;;;6045842;23;20213;-76
2021/01/13 09:28:16;;;;;;;8.57;4.15;;;6.40;99.90;;;;;;6050205;23;20161;-77
2021/01/13 09:30:44;;;;;;;5.10;4.40;;;6.50;99.90;;;;;;6052961;23;20156;-76
2021/01/13 09:33:19;;;;;;;7.57;3.58;;;6.50;99.90;;;;;;6031580;23;20177;-75
2021/01/13 09:35:47;;;;;;;6.28;4.03;;;6.60;99.90;;;;;;6035507;23;20144;-78
2021/01/13 09:38:36;;;;;;;4.63;4.20;;;6.70;99.90;;;;;;6030158;23;20219;-78
2021/01/13 09:41:07;;;;;;;9.70;4.90;;;6.70;99.90;;;;;;6030599;23;20160;-78
2021/01/13 09:43:34;;;;;;;10.20;5.60;;;6.80;99.90;;;;;;6031651;23;20541;-78
2021/01/13 09:46:03;;;;;;;7.53;4.90;;;6.90;99.90;;;;;;6030839;23;20179;-78
2021/01/13 09:48:31;;;;;;;6.22;5.05;;;7.00;99.90;;;;;;6124462;23;20527;-78
2021/01/13 09:51:11;;;;;;;13.32;5.00;;;7.10;99.90;;;;;;6182045;23;20229;-78
2021/01/13 09:53:52;;;;;;;12.25;5.05;;;7.30;99.90;;;;;;6182694;23;20193;-79
2021/01/13 09:56:18;;;;;;;9.80;5.50;;;7.50;99.90;;;;;;6183054;23;20149;-80
2021/01/13 09:58:48;;;;;;;15.93;5.23;;;7.70;99.90;;;;;;6182018;23;20161;-79
2021/01/13 10:01:22;;;;;;;9.23;4.55;;;7.80;99.90;;;;;;6182252;23;20547;-78
2021/01/13 10:03:55;;;;;;;8.48;4.55;;;8.00;99.90;;;;;;6156019;23;20188;-78
2021/01/13 10:06:31;;;;;;;6.03;3.92;;;8.10;99.90;;;;;;6182688;23;20126;-78
2021/01/13 10:08:59;;;;;;;8.25;4.47;;;8.20;99.90;;;;;;6182063;23;20181;-78
2021/01/13 10:11:26;;;;;;;7.55;5.38;;;8.30;99.90;;;;;;6182458;23;20615;-78
2021/01/13 10:13:55;;;;;;;9.07;4.80;;;8.40;99.90;;;;;;6186553;23;20549;-78
2021/01/13 10:16:21;;;;;;;9.88;6.30;;;8.50;99.90;;;;;;6156551;23;20161;-78
2021/01/13 10:18:48;;;;;;;8.17;5.10;;;8.60;99.90;;;;;;6130823;23;20150;-78
2021/01/13 10:21:14;;;;;;;8.85;4.80;;;8.60;99.90;;;;;;6157222;23;20599;-76
2021/01/13 10:23:42;;;;;;;8.23;4.68;;;8.70;99.90;;;;;;6181970;23;20837;-75
2021/01/13 10:26:09;;;;;;;8.68;5.13;;;8.70;99.90;;;;;;6156068;23;20157;-78
2021/01/13 10:28:35;;;;;;;5.55;4.15;;;8.70;99.90;;;;;;6182388;23;20142;-76
2021/01/13 10:31:03;;;;;;;11.07;5.40;;;8.70;99.90;;;;;;6142707;23;20173;-76
2021/01/13 10:33:47;;;;;;;6.50;5.90;;;8.80;99.90;;;;;;6190275;23;20197;-77
2021/01/13 10:36:35;;;;;;;8.85;5.45;;;8.80;99.90;;;;;;6194080;23;20152;-76
2021/01/13 10:39:22;;;;;;;10.20;5.78;;;8.90;99.90;;;;;;6165265;23;20149;-77
2021/01/13 10:41:50;;;;;;;10.52;5.22;;;9.10;99.90;;;;;;6170462;23;20162;-76
2021/01/13 10:44:17;;;;;;;10.30;5.13;;;9.20;99.90;;;;;;6195390;23;20166;-76
2021/01/13 10:46:45;;;;;;;6.85;5.20;;;9.30;99.90;;;;;;6198087;23;20146;-76
2021/01/13 10:49:37;;;;;;;6.90;4.47;;;9.40;99.90;;;;;;6192682;23;20595;-76
2021/01/13 10:52:06;;;;;;;6.50;4.70;;;9.50;99.90;;;;;;6164720;23;20145;-76
2021/01/13 10:54:34;;;;;;;6.13;3.92;;;9.60;99.90;;;;;;6164725;23;20172;-76
2021/01/13 10:57:06;;;;;;;8.85;4.70;;;9.60;99.90;;;;;;6185820;23;20235;-76
2021/01/13 10:59:33;;;;;;;5.53;3.85;;;9.60;99.90;;;;;;6173132;23;20173;-77
2021/01/13 11:02:04;;;;;;;7.82;4.80;;;9.60;99.90;;;;;;6205171;23;20434;-77
2021/01/13 11:04:33;;;;;;;9.05;5.07;;;9.60;99.90;;;;;;6201290;23;20173;-77
2021/01/13 11:07:07;;;;;;;9.23;4.35;;;9.60;99.90;;;;;;6202790;23;20165;-77
2021/01/13 11:09:40;;;;;;;9.43;4.15;;;9.50;99.90;;;;;;6197142;23;20129;-77
2021/01/13 11:12:06;;;;;;;9.48;4.75;;;9.50;99.90;;;;;;6173711;23;20145;-77
2021/01/13 11:14:43;;;;;;;6.03;3.05;;;9.40;99.90;;;;;;6194926;23;20541;-78
2021/01/13 11:17:12;;;;;;;8.48;4.80;;;9.30;99.90;;;;;;6169398;23;20216;-77
2021/01/13 11:19:52;;;;;;;9.68;5.75;;;9.30;99.90;;;;;;6195427;23;20173;-77
2021/01/13 11:22:20;;;;;;;11.98;6.20;;;9.20;99.90;;;;;;6175654;23;20162;-77
2021/01/13 11:25:22;;;;;;;7.75;5.10;;;9.20;99.90;;;;;;6094620;23;20548;-78
2021/01/13 11:28:24;;;;;;;10.48;5.07;;;9.10;99.90;;;;;;5991887;23;20379;-78
2021/01/13 11:31:04;;;;;;;6.70;4.43;;;9.10;99.90;;;;;;5995029;23;20202;-77
2021/01/13 11:33:52;;;;;;;9.95;4.35;;;9.10;99.90;;;;;;5999340;23;20170;-77
2021/01/13 11:36:36;;;;;;;9.85;4.45;;;9.10;99.90;;;;;;5997897;23;20134;-77
2021/01/13 11:39:52;;;;;;;5.97;3.75;;;9.10;99.90;;;;;;5986308;23;20189;-77
2021/01/13 11:43:16;;;;;;;12.63;4.38;;;9.10;99.90;;;;;;5996162;24;20249;-77
2021/01/13 11:50:46;;;;;;;10.57;3.60;;;9.00;99.90;;;;;;5984676;23;20594;-78
2021/01/13 11:53:47;;;;;;;9.25;4.28;;;9.00;99.90;;;;;;5987337;23;20654;-77
2021/01/13 12:00:45;;;;;;;12.85;5.93;;;8.90;99.90;;;;;;5991083;23;20169;-77
2021/01/13 12:03:36;;;;;;;;;;;;;;;;;;;;;
2021/01/13 12:06:34;;;;;;;6.53;3.63;;;8.80;99.90;;;;;;5981283;24;20169;-77
2021/01/13 12:09:54;;;;;;;9.02;5.03;;;8.80;99.90;;;;;;5983431;23;20150;-76
2021/01/13 12:12:38;;;;;;;8.40;4.40;;;8.70;99.90;;;;;;5990070;23;20326;-77
2021/01/13 12:15:35;;;;;;;9.80;5.05;;;8.70;99.90;;;;;;5990988;23;20241;-78
2021/01/13 12:18:21;;;;;;;9.02;4.93;;;8.70;99.90;;;;;;5992327;23;20138;-78
2021/01/13 12:21:10;;;;;;;;;;;;;;;;;;;;;
2021/01/13 12:24:42;;;;;;;9.90;4.95;;;8.70;99.90;;;;;;6024671;23;20648;-77
2021/01/13 12:31:10;;;;;;;8.70;5.03;;;8.70;99.90;;;;;;5995813;24;20567;-77
2021/01/13 12:34:12;;;;;;;6.68;4.15;;;8.80;99.90;;;;;;6061736;23;20175;-76
2021/01/13 12:36:51;;;;;;;9.88;4.90;;;8.80;99.90;;;;;;6129715;23;20472;-76
2021/01/13 12:39:49;;;;;;;9.40;5.40;;;8.80;99.90;;;;;;6112980;23;20214;-77
2021/01/13 12:42:54;;;;;;;5.82;3.80;;;8.70;99.90;;;;;;6119147;23;20222;-77
2021/01/13 12:45:37;;;;;;;8.45;4.78;;;8.60;99.90;;;;;;6086239;23;20664;-77
2021/01/13 12:48:40;;;;;;;7.45;4.45;;;8.30;99.90;;;;;;6138095;23;20220;-77
2021/01/13 12:51:39;;;;;;;8.00;3.90;;;8.30;99.90;;;;;;6139311;23;20135;-77
2021/01/13 12:54:56;;;;;;;12.98;4.30;;;8.40;99.90;;;;;;6087494;23;20171;-77
2021/01/13 12:58:26;;;;;;;;;;;;;;;;;;;;;
2021/01/13 13:01:16;;;;;;;7.50;4.05;;;8.40;99.90;;;;;;6037248;23;20188;-77
2021/01/13 13:04:39;;;;;;;7.18;4.47;;;8.40;99.90;;;;;;6088414;23;20306;-77
2021/01/13 13:07:14;;;;;;;11.13;5.97;;;8.40;99.90;;;;;;6129535;23;20153;-77
2021/01/13 13:09:49;;;;;;;12.00;7.22;;;8.40;99.90;;;;;;6088534;23;20161;-77
2021/01/13 13:16:36;;;;;;;7.20;4.15;;;8.20;99.90;;;;;;6081688;23;20149;-76
2021/01/13 13:32:03;;;;;;;;;;;;;;;;;;;;;
2021/01/13 13:35:24;;;;;;;6.60;3.05;;;7.90;99.90;;;;;;6025899;23;20165;-77
2021/01/13 13:39:47;;;;;;;8.32;3.80;;;7.90;99.90;;;;;;6079808;23;20167;-77
2021/01/13 13:46:16;;;;;;;7.32;3.60;;;7.60;99.90;;;;;;6137969;23;20499;-77
2021/01/13 13:49:55;;;;;;;;;;;;;;;;;;;;;
2021/01/13 14:00:24;;;;;;;6.97;3.95;;;7.60;99.90;;;;;;6136778;23;20179;-77
2021/01/13 14:03:34;;;;;;;6.30;4.00;;;7.60;99.90;;;;;;6135366;23;20179;-76
2021/01/13 14:06:54;;;;;;;;;;;;;;;;;;;;;
2021/01/13 14:10:17;;;;;;;11.05;3.92;;;7.60;99.90;;;;;;6142143;23;20171;-76
2021/01/13 14:13:01;;;;;;;;;;;;;;;;;;;;;
2021/01/13 14:15:50;;;;;;;6.20;2.28;;;7.60;99.90;;;;;;6098134;23;20159;-78
2021/01/13 14:19:08;;;;;;;5.70;3.58;;;7.60;99.90;;;;;;6098890;23;20691;-78
2021/01/13 14:22:44;;;;;;;;;;;;;;;;;;;;;
2021/01/13 14:25:49;;;;;;;4.22;2.22;;;7.60;99.90;;;;;;6104203;23;20508;-80
2021/01/13 14:32:30;;;;;;;8.50;3.50;;;7.50;99.90;;;;;;6076296;23;20170;-78
2021/01/13 14:35:08;;;;;;;5.32;3.03;;;7.60;99.90;;;;;;6123682;23;20136;-78
2021/01/13 14:37:38;;;;;;;7.00;2.30;;;7.60;99.90;;;;;;6098700;23;20161;-76
2021/01/13 14:40:08;;;;;;;7.80;3.20;;;7.60;99.90;;;;;;6105044;23;20234;-76
2021/01/13 14:43:14;;;;;;;5.05;2.33;;;7.60;99.90;;;;;;6125866;23;20167;-76
2021/01/13 14:46:40;;;;;;;4.50;2.85;;;7.60;99.90;;;;;;6122740;23;20224;-76
2021/01/13 14:49:06;;;;;;;6.28;3.05;;;7.60;99.90;;;;;;6099274;23;20467;-77
2021/01/13 14:51:46;;;;;;;5.47;2.67;;;7.60;99.90;;;;;;6125251;23;20594;-78
2021/01/13 14:54:22;;;;;;;3.97;1.90;;;7.60;99.90;;;;;;6099074;23;20226;-78
2021/01/13 14:57:01;;;;;;;7.85;3.40;;;7.50;99.90;;;;;;6124538;23;20723;-78
2021/01/13 15:00:12;;;;;;;;;;;;;;;;;;;;;
2021/01/13 15:07:12;;;;;;;6.60;3.28;;;7.50;99.90;;;;;;6097573;23;20155;-77
2021/01/13 15:13:36;;;;;;;8.43;4.53;;;7.30;99.90;;;;;;6016891;23;20219;-77
2021/01/13 15:16:05;;;;;;;6.25;4.65;;;7.40;99.90;;;;;;6079481;23;20155;-80
2021/01/13 15:18:31;;;;;;;7.60;3.87;;;7.40;99.90;;;;;;6097139;23;20170;-77
2021/01/13 15:21:01;;;;;;;5.80;4.20;;;7.40;99.90;;;;;;6096696;23;20535;-82
2021/01/13 15:23:31;;;;;;;4.68;3.65;;;7.40;99.90;;;;;;6122825;23;20175;-80
2021/01/13 15:26:22;;;;;;;8.43;3.30;;;7.40;99.90;;;;;;6097420;23;20143;-79
2021/01/13 15:29:29;;;;;;;6.82;4.32;;;7.40;99.90;;;;;;6096469;23;20167;-82
2021/01/13 15:32:20;;;;;;;13.48;7.00;;;7.30;99.90;;;;;;6123740;23;20154;-80
2021/01/13 15:35:02;;;;;;;7.70;4.20;;;7.30;99.90;;;;;;6120155;23;20201;-80
2021/01/13 15:38:15;;;;;;;6.80;3.30;;;7.30;99.90;;;;;;6098545;23;20589;-80
2021/01/13 15:45:46;;;;;;;5.32;3.97;;;7.30;99.90;;;;;;5913552;23;20322;-81
2021/01/13 15:48:24;;;;;;;6.70;4.25;;;7.30;99.90;;;;;;6008511;23;20151;-81
2021/01/13 15:50:50;;;;;;;6.80;4.45;;;7.20;99.90;;;;;;6096309;23;20131;-80
2021/01/13 15:53:16;;;;;;;11.65;5.63;;;7.20;99.90;;;;;;6122378;23;20510;-79